x

San Francisco - 18nm West Of San Francisco, Ca (46026) Wave Buoy

4:50pm - Sat 25th Oct 2014 All times are PDT. -7 hours from GMT.

  • Sig Wave height 13.1ft
  • Swell Direction
  • Peak Period 13s
  • Average Period 9s
  • Wind
    9mph, 18mph gusts
  • Sea Temp 61°f
  • Air Temp 61°f
  • Sea Pressure 1018.6mb
  • San Francisco - 18nm West Of San Francisco, Ca
  • San Francisco - 18nm West Of San Francisco, Ca

More Historic Weather Station data

Upgrade to MSW Pro to gain access to the past 30 days of data for over 8000 Wavebouys and Weather Stations around the globe.

Join Pro

Comparision Forecast

View Surf forecast
   
Sat 10/25 4:50pm 13ft 13s 9s 9 18 mph 1018.6mb 61f 61f
3:50pm 13ft 14s 9s 9 11 mph 1018.6mb 61f 62f
2:50pm 11ft 11s 9s 11 13 mph 1018.1mb 61f 63f
1:50pm 11ft 11s 8s 11 13 mph 1018.2mb 61f 63f
12:50pm 10ft 13s 8s 11 13 mph 1018.1mb 61f 63f
11:50am 10ft 10s 8s 11 13 mph 1017.9mb 61f 63f
10:50am 10ft 10s 7s 11 13 mph 1017.2mb 61f 63f
9:50am 9.5ft 10s 7s 16 18 mph 1016.5mb 61f 63f
8:50am 9ft 10s 7s 16 20 mph 1015.1mb 61f 63f
7:50am 9.5ft 10s 7s 18 20 mph 1014mb 61f 62f
6:50am 9ft 9s 7s 18 22 mph 1013.4mb 61f 62f
5:50am 8ft 8s 6s 18 22 mph 1013mb 61f 62f
4:50am 7.5ft 6s 6s 16 20 mph 1012.9mb 61f 60f
3:50am 7.5ft 6s 6s 13 18 mph 1012.8mb 61f 60f
2:50am 7ft 6s 5s 27 31 mph 1011.9mb 61f 63f
1:50am 6ft 5s 5s 25 31 mph 1012.3mb 61f 63f
12:50am 6ft 12s 5s 22 27 mph 1012.5mb 61f 63f
Fri 10/24 11:50pm 5.5ft 11s 5s 22 27 mph 1012.5mb 61f 62f
10:50pm 6ft 11s 6s 20 25 mph 1013mb 61f 62f
9:50pm 5ft 12s 5s 20 25 mph 1012.5mb 61f 62f
8:50pm 5.5ft 12s 6s 20 27 mph 1012.2mb 61f 62f
7:50pm 5ft 13s 6s 18 22 mph 1012.3mb 61f 62f
6:50pm 5ft 12s 7s 18 22 mph 1012.1mb 61f 62f
5:50pm 5ft 12s 7s 16 18 mph 1012.3mb 61f 62f
4:50pm 5.5ft 12s 8s 11 13 mph 1012.9mb 61f 62f
3:50pm 5.5ft 11s 8s 11 13 mph 1013.4mb 61f 62f
2:50pm 6ft 11s 8s 9 13 mph 1013.4mb 61f 61f
1:50pm 6ft 11s 9s 9 11 mph 1013.9mb 61f 62f
12:50pm 5ft 12s 8s 9 11 mph 1014.5mb 61f 61f
11:50am 6ft 11s 9s 7 9 mph 1014.8mb 61f 60f
10:50am 6ft 11s 9s 9 11 mph 1015.1mb 61f 60f
9:50am 6.5ft 11s 9s 11 16 mph 1015.1mb 61f 58f
8:50am 7ft 12s 9s 13 16 mph 1014.7mb 61f 58f
7:50am 6.5ft 12s 9s 11 13 mph 1014.3mb 61f 58f
6:50am 7ft 11s 9s 9 11 mph 1014.3mb 61f 59f
5:50am 7.5ft 12s 9s 9 11 mph 1014.4mb 61f 61f
4:50am 7ft 13s 9s 7
mph
1014.5mb 61f 60f
3:50am 6.5ft 11s 9s 2
mph
1014.5mb 61f 59f
2:50am 7.5ft 12s 9s  -  2 mph 1015mb 61f 58f
1:50am 7ft 13s 9s 2
mph
1015.3mb 61f 58f
12:50am 8ft 13s 10s 2
mph
1015.5mb 61f 59f
Thu 10/23 11:50pm 8ft 13s 9s 4
mph
1015.6mb 61f 59f
10:50pm 7ft 12s 9s 2 4 mph 1015.7mb 61f 59f
9:50pm 7.5ft 12s 9s 7 9 mph 1015.5mb 61f 59f
8:50pm 8ft 13s 10s 2 4 mph 1015.4mb 61f 59f
7:50pm 7ft 13s 9s 4 7 mph 1015.6mb 61f 59f
6:50pm 7ft 12s 9s 4 9 mph 1015.6mb 62f 59f
5:50pm 6.5ft 12s 9s 4 7 mph 1015.8mb 62f 60f
4:50pm 6.5ft 11s 9s 4 7 mph 1016.2mb 62f 60f
3:50pm 6.5ft 13s 9s 2 4 mph 1016.8mb 62f 61f
2:50pm 7ft 12s 9s 7 9 mph 1017.3mb 62f 61f
1:50pm 7ft 13s 9s 4
mph
1017.8mb 62f 61f
12:50pm 7ft 13s 9s 4 7 mph 1018.4mb 61f 61f
11:50am 7.5ft 13s 9s 2 4 mph 1018.7mb 61f 60f
10:50am 8.5ft 13s 9s 2 4 mph 1018.7mb 61f 60f
9:50am 8.5ft 13s 9s 4 7 mph 1018.4mb 61f 60f
8:50am 9ft 14s 10s  -  2 mph 1018.4mb 60f 61f
7:50am 8.5ft 14s 9s  -  2 mph 1017.9mb 61f 61f
6:50am 8ft 14s 9s 2 4 mph 1017.6mb 61f 61f
5:50am 9ft 13s 10s 2 4 mph 1017.2mb 61f 61f
4:50am 8ft 14s 10s 2 7 mph 1016.9mb 61f 61f
3:50am 8.5ft 14s 10s 2 7 mph 1017.5mb 61f 60f
2:50am 8ft 11s 10s  -  2 mph 1017.7mb 61f 61f
1:50am 8.5ft 14s 10s 2 4 mph 1017.6mb 61f 61f
12:50am 9ft 12s 10s  -  4 mph 1017.6mb 61f 61f
Wed 10/22 11:50pm 10ft 14s 10s 4 7 mph 1017.7mb 61f 61f
10:50pm 7.5ft 15s 10s 2 4 mph 1017.8mb 61f 61f
9:50pm 8.5ft 12s 10s  -  2 mph 1017.7mb 61f 61f
8:50pm 8ft 12s 10s 2 4 mph 1017.9mb 62f 62f
7:50pm 7ft 13s 9s 4 7 mph 1017.7mb 62f 62f
6:50pm 7ft 12s 9s 7 9 mph 1017.6mb 62f 62f
5:50pm 7ft 12s 9s 4 7 mph 1017.6mb 62f 62f
4:50pm 7ft 12s 9s 9 11 mph 1017.6mb 62f 63f
3:50pm 7ft 13s 9s 7 9 mph 1017.5mb 62f 63f
2:50pm 7ft 10s 9s 4 7 mph 1017.8mb 62f 62f
1:50pm 7ft 13s 9s 4 7 mph 1018.3mb 62f 62f
12:50pm 7.5ft 13s 9s 7 9 mph 1018.8mb 61f 61f
11:50am 8ft 13s 9s 4 7 mph 1019.2mb 61f 61f
10:50am 8ft 13s 10s 4
mph
1019.1mb 61f 61f
9:50am 7.5ft 12s 9s 4 7 mph 1018.7mb 60f 61f
8:50am 8ft 13s 10s 7 9 mph 1018.5mb 60f 61f
7:50am 7.5ft 14s 9s 4 9 mph 1017.6mb 60f 61f
6:50am 7.5ft 14s 9s 7 9 mph 1017.6mb 60f 61f
5:50am 8ft 13s 9s 7 9 mph 1017.6mb 60f 60f
4:50am 7.5ft 13s 9s 7
mph
1017.6mb 60f 60f
3:50am 7ft 13s 8s 11 13 mph 1017.7mb 61f 61f
2:50am 7ft 13s 8s 13 18 mph 1017.6mb 61f 61f
1:50am 8ft 14s 9s 11 13 mph 1017.7mb 61f 61f